Time;durP1;ratioP1;P1;durP2;ratioP2;P2;SDS_P1;SDS_P2;PMS_P1;PMS_P2;Temp;Humidity;BMP_temperature;BMP_pressure;BME280_temperature;BME280_humidity;BME280_pressure;Samples;Min_cycle;Max_cycle;Signal;HPM_P1;HPM_P2
2022/05/04 00:00:55;;;;;;;;;;;;;;;19.10;61.25;98704.78;2082843;28;20020;-48
2022/05/04 00:01:56;;;;;;;;;;;;;;;19.08;61.50;98707.69;2084766;28;19929;-46
2022/05/04 00:02:57;;;;;;;;;;;;;;;19.08;61.37;98702.28;2086204;28;20301;-46
2022/05/04 00:03:58;;;;;;;;;;;;;;;19.08;61.10;98707.69;2079455;28;19940;-46
2022/05/04 00:04:59;;;;;;;;;;;;;;;19.07;61.45;98708.72;2084615;28;19928;-46
2022/05/04 00:06:01;;;;;;;;;;;;;;;19.08;61.49;98707.69;2080646;28;19925;-45
2022/05/04 00:07:01;;;;;;;;;;;;;;;19.06;61.26;98707.06;2079136;28;20288;-47
2022/05/04 00:08:03;;;;;;;;;;;;;;;19.09;61.08;98698.59;2081341;28;19967;-47
2022/05/04 00:09:04;;;;;;;;;;;;;;;19.10;61.37;98708.31;2079755;28;19933;-47
2022/05/04 00:10:06;;;;;;;;;;;;;;;19.08;61.20;98704.16;2084294;28;20618;-45
2022/05/04 00:11:07;;;;;;;;;;;;;;;19.08;61.29;98701.47;2084340;28;20028;-46
2022/05/04 00:12:09;;;;;;;;;;;;;;;19.07;61.21;98705.22;2078617;28;19924;-47
2022/05/04 00:13:11;;;;;;;;;;;;;;;19.06;61.37;98707.06;2082988;28;19931;-46
2022/05/04 00:14:12;;;;;;;;;;;;;;;19.06;61.53;98703.56;2082429;28;19928;-45
2022/05/04 00:15:13;;;;;;;;;;;;;;;19.04;61.36;98703.75;2082860;28;19925;-46
2022/05/04 00:16:14;;;;;;;;;;;;;;;19.05;61.34;98704.56;2081714;28;19998;-47
2022/05/04 00:17:15;;;;;;;;;;;;;;;19.07;61.42;98699.84;2084338;28;19935;-45
2022/05/04 00:18:16;;;;;;;;;;;;;;;19.07;61.08;98699.84;2082468;28;20354;-45
2022/05/04 00:19:17;;;;;;;;;;;;;;;19.05;61.39;98696.50;2082044;28;20933;-46
2022/05/04 00:20:19;;;;;;;;;;;;;;;19.06;61.55;98700.88;2082536;28;19928;-47
2022/05/04 00:21:19;;;;;;;;;;;;;;;19.05;61.26;98697.34;2084636;28;19932;-45
2022/05/04 00:22:21;;;;;;;;;;;;;;;19.06;61.17;98699.00;2081746;28;20800;-46
2022/05/04 00:23:22;;;;;;;;;;;;;;;19.05;60.99;98699.19;2086285;28;19937;-45
2022/05/04 00:24:23;;;;;;;;;;;;;;;19.08;61.35;98702.28;2082153;28;19925;-46
2022/05/04 00:25:24;;;;;;;;;;;;;;;19.06;61.16;98695.50;2080377;28;19936;-45
2022/05/04 00:26:25;;;;;;;;;;;;;;;19.07;61.17;98694.44;2084652;28;19939;-46
2022/05/04 00:27:26;;;;;;;;;;;;;;;19.06;61.15;98703.56;2083196;28;19924;-46
2022/05/04 00:28:29;;;;;;;;;;;;;;;19.06;61.19;98700.88;2078894;28;19932;-45
2022/05/04 00:29:29;;;;;;;;;;;;;;;19.07;61.21;98695.28;2079233;28;19925;-45
2022/05/04 00:30:31;;;;;;;;;;;;;;;19.05;61.12;98696.50;2088269;28;20843;-49
2022/05/04 00:31:31;;;;;;;;;;;;;;;19.07;61.03;98694.44;2086883;28;19931;-46
2022/05/04 00:32:33;;;;;;;;;;;;;;;19.06;61.14;98687.44;2088308;28;20023;-48
2022/05/04 00:33:34;;;;;;;;;;;;;;;19.06;61.32;98695.50;2088131;28;19986;-45
2022/05/04 00:34:35;;;;;;;;;;;;;;;19.04;61.39;98692.19;2089869;28;19929;-48
2022/05/04 00:35:36;;;;;;;;;;;;;;;19.07;60.91;98694.44;2085386;28;19925;-46
2022/05/04 00:36:38;;;;;;;;;;;;;;;19.04;61.31;98692.19;2087556;28;20460;-49
2022/05/04 00:37:38;;;;;;;;;;;;;;;19.06;61.29;98690.13;2087320;28;20344;-46
2022/05/04 00:38:40;;;;;;;;;;;;;;;19.05;61.31;98691.97;2084510;28;19929;-48
2022/05/04 00:39:40;;;;;;;;;;;;;;;19.08;61.29;98696.09;2079596;28;19928;-47
2022/05/04 00:40:42;;;;;;;;;;;;;;;19.05;61.39;98691.13;2079430;28;19928;-47
2022/05/04 00:41:43;;;;;;;;;;;;;;;19.04;61.16;98690.31;2070487;28;19925;-46
2022/05/04 00:42:44;;;;;;;;;;;;;;;19.04;61.16;98693.00;2079815;28;19964;-46
2022/05/04 00:43:51;;;;;;;;;;;;;;;19.07;61.08;98691.75;2077674;28;19925;-47
2022/05/04 00:44:53;;;;;;;;;;;;;;;19.04;61.34;98693.00;2082986;28;19994;-50
2022/05/04 00:45:54;;;;;;;;;;;;;;;19.03;61.17;98688.66;2079713;28;19933;-47
2022/05/04 00:46:55;;;;;;;;;;;;;;;19.02;61.29;98692.38;2085484;28;19924;-46
2022/05/04 00:47:56;;;;;;;;;;;;;;;19.03;61.06;98690.50;2086644;28;20348;-50
2022/05/04 00:48:57;;;;;;;;;;;;;;;19.02;61.33;98692.38;2088222;28;19924;-49
2022/05/04 00:50:04;;;;;;;;;;;;;;;19.04;61.07;98693.00;2086375;28;19924;-47
2022/05/04 00:51:05;;;;;;;;;;;;;;;19.02;61.22;98695.06;2089418;28;19940;-46
2022/05/04 00:52:06;;;;;;;;;;;;;;;19.05;61.13;98696.50;2086440;28;20286;-47
2022/05/04 00:53:08;;;;;;;;;;;;;;;19.02;61.27;98696.94;2086875;28;19928;-45
2022/05/04 00:54:10;;;;;;;;;;;;;;;19.05;61.06;98699.19;2087151;28;19925;-48
2022/05/04 00:55:12;;;;;;;;;;;;;;;19.05;61.06;98708.09;2087404;28;19932;-45
2022/05/04 00:56:12;;;;;;;;;;;;;;;19.03;61.26;98698.56;2087523;28;20014;-47
2022/05/04 00:57:15;;;;;;;;;;;;;;;19.03;61.24;98701.25;2090683;28;19925;-46
2022/05/04 00:59:37;;;;;;;;;;;;;;;19.01;61.26;98706.84;2089097;28;19928;-47
2022/05/04 01:00:38;;;;;;;;;;;;;;;19.01;60.95;98706.03;2087838;28;20533;-46
2022/05/04 01:01:40;;;;;;;;;;;;;;;19.00;61.16;98701.66;2088523;28;19932;-47
2022/05/04 01:02:41;;;;;;;;;;;;;;;19.01;61.05;98711.41;2090005;28;20011;-47
2022/05/04 01:03:43;;;;;;;;;;;;;;;19.00;61.03;98710.59;2085975;28;19932;-47
2022/05/04 01:04:43;;;;;;;;;;;;;;;19.01;61.19;98711.41;2086055;28;19924;-47
2022/05/04 01:05:45;;;;;;;;;;;;;;;19.00;61.32;98709.72;2090414;28;19928;-48
2022/05/04 01:06:47;;;;;;;;;;;;;;;18.99;61.16;98706.22;2091995;28;19929;-47
2022/05/04 01:07:48;;;;;;;;;;;;;;;18.98;61.45;98708.09;2085803;28;20015;-46
2022/05/04 01:08:50;;;;;;;;;;;;;;;19.02;61.21;98710.38;2089368;28;20541;-46
2022/05/04 01:09:50;;;;;;;;;;;;;;;19.00;61.13;98715.09;2087765;28;19959;-45
2022/05/04 01:10:52;;;;;;;;;;;;;;;19.01;60.94;98722.16;2088367;28;20638;-46
2022/05/04 01:11:52;;;;;;;;;;;;;;;19.01;61.19;98716.78;2084592;28;19936;-45
2022/05/04 01:12:55;;;;;;;;;;;;;;;19.01;61.41;98716.78;2085698;28;19928;-46
2022/05/04 01:13:59;;;;;;;;;;;;;;;19.01;61.03;98719.47;2090671;28;19982;-45
2022/05/04 01:15:02;;;;;;;;;;;;;;;18.97;61.13;98722.56;2081889;28;19933;-49
2022/05/04 01:16:03;;;;;;;;;;;;;;;18.99;61.08;98714.28;2088875;28;20008;-47
2022/05/04 01:17:05;;;;;;;;;;;;;;;19.00;61.04;98717.78;2086731;28;19939;-48
2022/05/04 01:18:06;;;;;;;;;;;;;;;19.01;61.25;98722.97;2086433;28;19925;-47
2022/05/04 01:19:08;;;;;;;;;;;;;;;19.02;60.94;98718.44;2086007;28;20542;-47
2022/05/04 01:20:09;;;;;;;;;;;;;;;19.02;61.02;98723.81;2078346;28;19935;-46
2022/05/04 01:21:10;;;;;;;;;;;;;;;19.01;61.20;98716.78;2080986;28;19990;-47
2022/05/04 01:22:12;;;;;;;;;;;;;;;19.00;61.02;98715.97;2085049;28;19936;-47
2022/05/04 01:23:14;;;;;;;;;;;;;;;19.01;61.01;98730.22;2086132;28;19940;-49
2022/05/04 01:24:14;;;;;;;;;;;;;;;18.98;61.28;98721.53;2080704;28;20028;-47
2022/05/04 01:25:16;;;;;;;;;;;;;;;19.00;61.15;98728.56;2080691;28;22196;-45
2022/05/04 01:26:17;;;;;;;;;;;;;;;18.97;61.05;98725.25;2085744;28;19936;-46
2022/05/04 01:27:18;;;;;;;;;;;;;;;18.96;61.14;98731.66;2088184;28;19931;-45
2022/05/04 01:28:19;;;;;;;;;;;;;;;18.97;61.32;98727.09;2085781;28;20007;-46
2022/05/04 01:29:20;;;;;;;;;;;;;;;18.96;61.29;98728.13;2085311;28;19928;-48
2022/05/04 01:30:22;;;;;;;;;;;;;;;19.01;61.03;98730.22;2086191;28;20003;-47
2022/05/04 01:31:22;;;;;;;;;;;;;;;18.98;61.08;98726.91;2084302;28;19936;-46
2022/05/04 01:32:25;;;;;;;;;;;;;;;18.97;61.42;98724.41;2080747;28;19933;-47
2022/05/04 01:33:25;;;;;;;;;;;;;;;18.97;60.95;98732.47;2074579;28;19933;-46
2022/05/04 01:34:28;;;;;;;;;;;;;;;18.98;60.97;98726.91;2076875;28;20030;-45
2022/05/04 01:35:28;;;;;;;;;;;;;;;18.96;61.31;98728.97;2078178;28;19924;-48
2022/05/04 01:36:30;;;;;;;;;;;;;;;18.94;61.13;98728.34;2082153;28;19987;-46
2022/05/04 01:37:32;;;;;;;;;;;;;;;18.97;61.06;98733.31;2083221;28;19951;-47
2022/05/04 01:38:34;;;;;;;;;;;;;;;18.96;61.08;98726.28;2082378;28;20872;-47
2022/05/04 01:39:34;;;;;;;;;;;;;;;18.95;61.15;98727.31;2085594;28;19955;-47
2022/05/04 01:40:36;;;;;;;;;;;;;;;18.95;61.31;98738.06;2067827;28;19929;-45
2022/05/04 01:42:56;;;;;;;;;;;;;;;18.94;61.34;98730.19;2085627;28;19936;-46
2022/05/04 01:43:56;;;;;;;;;;;;;;;18.94;61.29;98739.09;2083373;28;20111;-47
2022/05/04 01:44:58;;;;;;;;;;;;;;;18.95;61.25;98732.69;2081967;28;19947;-45
2022/05/04 01:45:58;;;;;;;;;;;;;;;18.95;61.16;98734.56;2084659;28;19929;-47
2022/05/04 01:47:00;;;;;;;;;;;;;;;18.96;61.22;98737.03;2090822;28;20024;-46
2022/05/04 01:48:02;;;;;;;;;;;;;;;18.97;61.02;98733.31;2084817;28;20023;-46
2022/05/04 01:49:02;;;;;;;;;;;;;;;18.98;61.17;98734.97;2084413;28;20049;-48
2022/05/04 01:50:04;;;;;;;;;;;;;;;18.96;60.83;98739.72;2083599;28;19933;-48
2022/05/04 01:51:04;;;;;;;;;;;;;;;18.98;60.97;98732.28;2087523;28;20066;-46
2022/05/04 01:52:06;;;;;;;;;;;;;;;18.98;60.79;98740.34;2079310;28;19936;-46
2022/05/04 01:53:08;;;;;;;;;;;;;;;19.02;61.04;98734.56;2083137;28;19928;-47
2022/05/04 01:54:10;;;;;;;;;;;;;;;18.98;60.94;98743.03;2080556;28;19925;-45
2022/05/04 01:55:12;;;;;;;;;;;;;;;18.97;61.24;98737.84;2084075;28;20597;-47
2022/05/04 01:56:13;;;;;;;;;;;;;;;18.94;61.24;98733.72;2083627;28;20019;-45
2022/05/04 01:57:14;;;;;;;;;;;;;;;18.94;61.05;98736.41;2087199;28;19939;-47
2022/05/04 01:58:15;;;;;;;;;;;;;;;18.93;61.13;98740.13;2087323;28;20035;-46
2022/05/04 01:59:16;;;;;;;;;;;;;;;18.93;61.29;98739.28;2079822;28;19932;-47
2022/05/04 02:00:18;;;;;;;;;;;;;;;18.93;61.06;98742.81;2080534;28;19940;-46
2022/05/04 02:01:18;;;;;;;;;;;;;;;18.94;61.26;98744.47;2081016;28;19925;-44
2022/05/04 02:02:20;;;;;;;;;;;;;;;18.95;61.19;98745.31;2085624;28;20006;-48
2022/05/04 02:03:20;;;;;;;;;;;;;;;18.95;60.97;98745.31;2084173;28;19924;-50
2022/05/04 02:04:23;;;;;;;;;;;;;;;18.94;61.05;98747.16;2083461;28;20597;-48
2022/05/04 02:05:24;;;;;;;;;;;;;;;18.96;61.17;98746.94;2089583;28;20373;-46
2022/05/04 02:06:25;;;;;;;;;;;;;;;18.95;61.16;98745.31;2081539;28;19932;-45
2022/05/04 02:07:27;;;;;;;;;;;;;;;18.94;61.15;98744.47;2086139;28;19932;-48
2022/05/04 02:08:31;;;;;;;;;;;;;;;18.94;61.23;98744.47;2080781;28;19933;-48
2022/05/04 02:09:32;;;;;;;;;;;;;;;18.93;60.99;98748.19;2079561;28;19925;-47
2022/05/04 02:10:33;;;;;;;;;;;;;;;18.95;61.15;98750.69;2082831;28;24765;-47
2022/05/04 02:11:35;;;;;;;;;;;;;;;18.94;61.13;98749.84;2077535;28;19929;-47
2022/05/04 02:12:37;;;;;;;;;;;;;;;18.94;60.79;98746.31;2081952;28;19955;-47
2022/05/04 02:13:37;;;;;;;;;;;;;;;18.92;61.12;98754.59;2083756;28;19933;-46
2022/05/04 02:14:39;;;;;;;;;;;;;;;18.92;61.08;98748.41;2082776;28;19932;-47
2022/05/04 02:15:40;;;;;;;;;;;;;;;18.92;61.04;98753.78;2083981;28;19947;-48
2022/05/04 02:16:41;;;;;;;;;;;;;;;18.93;61.07;98755.44;2083292;28;19924;-46
2022/05/04 02:17:42;;;;;;;;;;;;;;;18.92;61.31;98751.91;2082394;28;20023;-47
2022/05/04 02:18:44;;;;;;;;;;;;;;;18.92;61.04;98746.53;2089189;28;19925;-45
2022/05/04 02:19:44;;;;;;;;;;;;;;;18.92;61.04;98753.78;2085116;28;19925;-46
2022/05/04 02:20:45;;;;;;;;;;;;;;;18.91;61.00;98755.59;2082604;28;19933;-47
2022/05/04 02:21:46;;;;;;;;;;;;;;;18.90;61.03;98756.66;2082974;28;19940;-46
2022/05/04 02:22:48;;;;;;;;;;;;;;;18.91;61.00;98754.78;2081156;28;20218;-47
2022/05/04 02:23:50;;;;;;;;;;;;;;;18.91;60.85;98757.47;2080587;28;19928;-47
2022/05/04 02:24:51;;;;;;;;;;;;;;;18.92;60.98;98757.28;2081572;28;20072;-45
2022/05/04 02:25:52;;;;;;;;;;;;;;;18.90;61.01;98759.34;2077795;28;19936;-47
2022/05/04 02:26:53;;;;;;;;;;;;;;;18.90;61.02;98759.34;2080250;28;19925;-46
2022/05/04 02:27:54;;;;;;;;;;;;;;;18.95;61.13;98762.25;2080342;28;20423;-46
2022/05/04 02:28:55;;;;;;;;;;;;;;;18.92;60.85;98754.59;2081832;28;19933;-47
2022/05/04 02:29:56;;;;;;;;;;;;;;;18.93;60.97;98755.44;2083475;28;20019;-50
2022/05/04 02:30:57;;;;;;;;;;;;;;;18.91;61.02;98755.59;2080830;28;19932;-46
2022/05/04 02:31:59;;;;;;;;;;;;;;;18.90;61.01;98748.59;2081880;28;20104;-47
2022/05/04 02:33:01;;;;;;;;;;;;;;;18.89;61.05;98749.63;2083647;28;20019;-48
2022/05/04 02:34:01;;;;;;;;;;;;;;;18.91;60.93;98755.59;2086226;28;20393;-47
2022/05/04 02:37:57;;;;;;;;;;;;;;;18.92;61.12;98751.91;2083499;28;19933;-46
2022/05/04 02:38:59;;;;;;;;;;;;;;;18.89;61.27;98749.63;2082662;28;20531;-46
2022/05/04 02:40:00;;;;;;;;;;;;;;;18.89;60.86;98746.13;2084814;28;20375;-49
2022/05/04 02:41:02;;;;;;;;;;;;;;;18.90;60.96;98748.59;2079665;28;20715;-50
2022/05/04 02:42:03;;;;;;;;;;;;;;;18.89;61.20;98746.94;2083656;28;20291;-47
2022/05/04 02:43:06;;;;;;;;;;;;;;;18.90;61.11;98751.28;2080344;28;19925;-45
2022/05/04 02:44:07;;;;;;;;;;;;;;;18.89;61.01;98740.75;2084568;28;19928;-47
2022/05/04 02:45:10;;;;;;;;;;;;;;;18.90;60.78;98750.47;2084680;28;19935;-49
2022/05/04 02:46:12;;;;;;;;;;;;;;;18.89;60.93;98751.50;2086745;28;19956;-47
2022/05/04 02:47:13;;;;;;;;;;;;;;;18.90;60.72;98753.97;2077447;28;19928;-46
2022/05/04 02:48:15;;;;;;;;;;;;;;;18.88;61.19;98750.66;2081613;28;19928;-47
2022/05/04 02:49:15;;;;;;;;;;;;;;;18.89;61.18;98746.13;2079468;28;20043;-47
2022/05/04 02:50:17;;;;;;;;;;;;;;;18.88;61.15;98760.56;2085933;28;19933;-49
2022/05/04 02:51:18;;;;;;;;;;;;;;;18.87;60.95;98754.38;2083703;28;20031;-47
2022/05/04 02:52:19;;;;;;;;;;;;;;;18.88;61.16;98753.34;2082988;28;19925;-47
2022/05/04 02:53:20;;;;;;;;;;;;;;;18.87;61.05;98751.69;2085192;28;19933;-46
2022/05/04 02:54:22;;;;;;;;;;;;;;;18.87;60.92;98748.19;2089648;28;20383;-48
2022/05/04 02:55:24;;;;;;;;;;;;;;;18.86;61.03;98752.72;2081914;28;19925;-46
2022/05/04 02:56:24;;;;;;;;;;;;;;;18.86;61.34;98755.41;2090136;28;20467;-47
2022/05/04 02:57:26;;;;;;;;;;;;;;;18.86;61.01;98755.41;2083942;28;19932;-46
2022/05/04 02:58:26;;;;;;;;;;;;;;;18.86;61.21;98751.88;2081239;28;19928;-45
2022/05/04 02:59:29;;;;;;;;;;;;;;;18.86;61.19;98758.09;2082156;28;20011;-46
2022/05/04 03:00:31;;;;;;;;;;;;;;;18.87;61.09;98754.38;2083811;28;19928;-46
2022/05/04 03:02:51;;;;;;;;;;;;;;;18.87;60.88;98749.00;2080057;28;20016;-45
2022/05/04 03:03:52;;;;;;;;;;;;;;;18.88;61.15;98756.03;2079672;28;19937;-46
2022/05/04 03:04:53;;;;;;;;;;;;;;;18.89;60.96;98751.50;2084976;28;19932;-47
2022/05/04 03:05:54;;;;;;;;;;;;;;;18.89;61.03;98754.19;2081840;28;20993;-45
2022/05/04 03:06:55;;;;;;;;;;;;;;;18.87;61.28;98754.38;2080578;28;19936;-47
2022/05/04 03:07:56;;;;;;;;;;;;;;;18.85;60.98;98756.44;2085645;28;20295;-53
2022/05/04 03:08:57;;;;;;;;;;;;;;;18.87;60.90;98758.94;2077502;28;19972;-46
2022/05/04 03:09:59;;;;;;;;;;;;;;;18.85;60.99;98756.44;2082476;28;19939;-46
2022/05/04 03:12:20;;;;;;;;;;;;;;;18.85;61.25;98753.75;2083779;28;19928;-47
2022/05/04 03:13:20;;;;;;;;;;;;;;;18.84;61.25;98754.78;2077822;28;20457;-46
2022/05/04 03:14:23;;;;;;;;;;;;;;;18.85;61.18;98760.97;2079998;28;19939;-46
2022/05/04 03:15:25;;;;;;;;;;;;;;;18.86;61.14;98758.09;2080464;28;20019;-45
2022/05/04 03:16:25;;;;;;;;;;;;;;;18.87;60.90;98753.56;2084464;28;19976;-48
2022/05/04 03:17:27;;;;;;;;;;;;;;;18.87;60.87;98751.69;2080111;28;19940;-46
2022/05/04 03:18:27;;;;;;;;;;;;;;;18.89;61.03;98754.19;2084388;28;19947;-47
2022/05/04 03:19:29;;;;;;;;;;;;;;;18.88;61.09;98752.50;2086322;28;19945;-45
2022/05/04 03:20:30;;;;;;;;;;;;;;;18.87;61.07;98754.38;2082293;28;20314;-47
2022/05/04 03:21:31;;;;;;;;;;;;;;;18.87;60.94;98753.56;2085019;28;19969;-49
2022/05/04 03:22:33;;;;;;;;;;;;;;;18.85;60.88;98759.13;2087463;28;20349;-47
2022/05/04 03:23:33;;;;;;;;;;;;;;;18.86;61.06;98758.09;2085744;28;19925;-47
2022/05/04 03:24:35;;;;;;;;;;;;;;;18.86;61.13;98768.00;2080420;28;20031;-46
2022/05/04 03:25:37;;;;;;;;;;;;;;;18.85;61.27;98760.97;2085728;28;19928;-46
2022/05/04 03:26:39;;;;;;;;;;;;;;;18.88;60.86;98756.03;2082426;28;19935;-47
2022/05/04 03:27:40;;;;;;;;;;;;;;;18.87;60.81;98764.31;2083423;28;20012;-46
2022/05/04 03:28:41;;;;;;;;;;;;;;;18.86;61.22;98758.09;2081524;28;19933;-47
2022/05/04 03:29:43;;;;;;;;;;;;;;;18.84;60.93;98765.53;2078198;28;19990;-45
2022/05/04 03:30:43;;;;;;;;;;;;;;;18.84;60.79;98767.41;2074406;28;19940;-48
2022/05/04 03:31:45;;;;;;;;;;;;;;;18.83;61.11;98763.84;2070290;28;19936;-45
2022/05/04 03:32:47;;;;;;;;;;;;;;;18.83;61.36;98765.72;2074883;28;19933;-45
2022/05/04 03:33:47;;;;;;;;;;;;;;;18.80;61.19;98766.94;2069811;28;19968;-46
2022/05/04 03:34:49;;;;;;;;;;;;;;;18.82;61.25;98762.22;2071031;28;19925;-48
2022/05/04 03:35:49;;;;;;;;;;;;;;;18.82;61.27;98764.91;2070097;28;19939;-47
2022/05/04 03:36:51;;;;;;;;;;;;;;;18.84;60.81;98767.41;2070732;28;20424;-45
2022/05/04 03:37:51;;;;;;;;;;;;;;;18.84;61.06;98765.53;2069978;28;20051;-46
2022/05/04 03:38:53;;;;;;;;;;;;;;;18.84;61.20;98768.22;2075562;28;20445;-45
2022/05/04 03:39:54;;;;;;;;;;;;;;;18.84;61.00;98768.22;2073027;28;20437;-47
2022/05/04 03:40:56;;;;;;;;;;;;;;;18.80;61.37;98769.63;2078575;28;19929;-44
2022/05/04 03:41:59;;;;;;;;;;;;;;;18.86;61.05;98768.84;2076316;28;19972;-46
2022/05/04 03:43:00;;;;;;;;;;;;;;;18.83;61.08;98769.22;2078044;28;19936;-45
2022/05/04 03:44:02;;;;;;;;;;;;;;;18.86;61.30;98774.22;2074652;28;20499;-46
2022/05/04 03:45:04;;;;;;;;;;;;;;;18.82;61.28;98770.28;2072242;28;19998;-46
2022/05/04 03:46:11;;;;;;;;;;;;;;;18.82;61.52;98775.66;2071842;28;19933;-46
2022/05/04 03:47:12;;;;;;;;;;;;;;;18.82;61.58;98777.50;2073282;28;19975;-48
2022/05/04 03:48:13;;;;;;;;;;;;;;;18.82;61.20;98775.66;2071894;28;21270;-45
2022/05/04 03:49:15;;;;;;;;;;;;;;;18.84;61.34;98772.78;2075438;28;19937;-46
2022/05/04 03:50:15;;;;;;;;;;;;;;;18.85;61.31;98777.09;2072619;28;19940;-47
2022/05/04 03:51:19;;;;;;;;;;;;;;;18.86;61.15;98779.59;2071648;28;19939;-47
2022/05/04 03:52:21;;;;;;;;;;;;;;;18.85;61.20;98779.78;2071996;28;19926;-47
2022/05/04 03:53:21;;;;;;;;;;;;;;;18.80;61.47;98780.38;2076679;28;19929;-45
2022/05/04 03:54:23;;;;;;;;;;;;;;;18.83;61.27;98779.16;2076934;28;19979;-45
2022/05/04 03:55:23;;;;;;;;;;;;;;;18.85;61.36;98777.09;2070374;28;21972;-45
2022/05/04 03:56:26;;;;;;;;;;;;;;;18.86;60.99;98776.91;2071380;28;19929;-46
2022/05/04 03:57:27;;;;;;;;;;;;;;;18.84;61.32;98781.66;2073500;28;20015;-46
2022/05/04 03:58:28;;;;;;;;;;;;;;;18.83;61.36;98779.97;2073975;28;19936;-47
2022/05/04 03:59:31;;;;;;;;;;;;;;;18.81;61.45;98782.06;2073343;28;19933;-45
2022/05/04 04:00:31;;;;;;;;;;;;;;;18.83;61.43;98787.22;2073455;28;19929;-46
2022/05/04 04:01:33;;;;;;;;;;;;;;;18.85;61.15;98777.94;2069073;28;19931;-45
2022/05/04 04:02:34;;;;;;;;;;;;;;;18.83;61.20;98784.53;2073743;28;20555;-46
2022/05/04 04:03:36;;;;;;;;;;;;;;;18.83;61.44;98788.03;2074435;28;19933;-44
2022/05/04 04:04:37;;;;;;;;;;;;;;;18.82;61.21;98783.72;2070103;28;20475;-45
2022/05/04 04:05:38;;;;;;;;;;;;;;;18.83;61.14;98779.97;2073539;28;19929;-45
2022/05/04 04:06:39;;;;;;;;;;;;;;;18.84;61.20;98775.47;2068476;28;22185;-45
2022/05/04 04:07:40;;;;;;;;;;;;;;;18.83;61.35;98777.28;2069584;28;20008;-47
2022/05/04 04:08:41;;;;;;;;;;;;;;;18.84;61.12;98778.97;2071426;28;19933;-47
2022/05/04 04:09:42;;;;;;;;;;;;;;;18.84;61.25;98784.34;2073512;28;19928;-47
2022/05/04 04:10:43;;;;;;;;;;;;;;;18.83;61.27;98782.66;2071047;28;20549;-46
2022/05/04 04:11:46;;;;;;;;;;;;;;;18.86;61.04;98776.06;2073387;28;19935;-49
2022/05/04 04:12:47;;;;;;;;;;;;;;;18.86;61.27;98778.75;2072978;28;20302;-47
2022/05/04 04:13:48;;;;;;;;;;;;;;;18.87;60.95;98775.06;2076793;28;20011;-44
2022/05/04 04:14:49;;;;;;;;;;;;;;;18.85;61.24;98782.47;2078556;28;19932;-46
2022/05/04 04:15:51;;;;;;;;;;;;;;;18.85;61.15;98785.16;2078126;28;20447;-44
2022/05/04 04:16:53;;;;;;;;;;;;;;;18.84;61.03;98792.41;2076552;28;20593;-46
2022/05/04 04:17:54;;;;;;;;;;;;;;;18.83;61.18;98784.53;2081276;28;20561;-47
2022/05/04 04:18:55;;;;;;;;;;;;;;;18.82;61.21;98788.25;2085368;28;19978;-45
2022/05/04 04:22:30;;;;;;;;;;;;;;;18.80;61.14;98784.94;2083099;28;20023;-45
2022/05/04 04:23:31;;;;;;;;;;;;;;;18.80;61.17;98784.94;2086083;28;19938;-47
2022/05/04 04:24:33;;;;;;;;;;;;;;;18.80;61.38;98787.63;2088731;28;19924;-47
2022/05/04 04:25:34;;;;;;;;;;;;;;;18.84;61.17;98788.91;2088756;28;19928;-47
2022/05/04 04:26:36;;;;;;;;;;;;;;;18.83;61.00;98793.41;2088537;28;20641;-47
2022/05/04 04:27:38;;;;;;;;;;;;;;;18.84;61.12;98791.59;2085125;28;20035;-48
2022/05/04 04:28:40;;;;;;;;;;;;;;;18.83;61.08;98790.72;2080744;28;19933;-46
2022/05/04 04:29:42;;;;;;;;;;;;;;;18.83;61.26;98806.84;2082663;28;19978;-45
2022/05/04 04:30:42;;;;;;;;;;;;;;;18.82;61.33;98797.16;2081321;28;20228;-47
2022/05/04 04:31:44;;;;;;;;;;;;;;;18.83;61.01;98795.28;2081065;28;19940;-46
2022/05/04 04:32:44;;;;;;;;;;;;;;;18.83;61.34;98806.03;2082112;28;20011;-47
2022/05/04 04:33:46;;;;;;;;;;;;;;;18.84;61.03;98791.59;2085198;28;20490;-46
2022/05/04 04:34:46;;;;;;;;;;;;;;;18.83;61.22;98793.41;2083593;28;19989;-45
2022/05/04 04:35:48;;;;;;;;;;;;;;;18.84;60.84;98795.09;2089365;28;19925;-45
2022/05/04 04:36:49;;;;;;;;;;;;;;;18.84;61.00;98797.78;2086789;28;19976;-48
2022/05/04 04:37:50;;;;;;;;;;;;;;;18.82;61.31;98804.38;2083605;28;19936;-46
2022/05/04 04:38:52;;;;;;;;;;;;;;;18.82;61.10;98807.88;2081955;28;19925;-46
2022/05/04 04:39:52;;;;;;;;;;;;;;;18.83;61.28;98801.47;2084472;28;19989;-47
2022/05/04 04:40:54;;;;;;;;;;;;;;;18.84;60.94;98802.34;2086317;28;19925;-46
2022/05/04 04:41:54;;;;;;;;;;;;;;;18.84;61.03;98803.16;2078295;28;19999;-46
2022/05/04 04:42:57;;;;;;;;;;;;;;;18.81;61.12;98805.44;2083304;28;19929;-48
2022/05/04 04:43:59;;;;;;;;;;;;;;;18.83;61.13;98806.84;2086504;28;20367;-46
2022/05/04 04:44:59;;;;;;;;;;;;;;;18.82;60.90;98805.22;2083048;28;20023;-46
2022/05/04 04:46:01;;;;;;;;;;;;;;;18.82;61.10;98821.31;2086379;28;19924;-47
2022/05/04 04:47:01;;;;;;;;;;;;;;;18.82;61.28;98823.19;2081867;28;20990;-46
2022/05/04 04:48:03;;;;;;;;;;;;;;;18.81;61.14;98825.06;2082500;28;19928;-45
2022/05/04 04:49:05;;;;;;;;;;;;;;;18.80;61.05;98818.00;2080149;28;19939;-45
2022/05/04 04:50:06;;;;;;;;;;;;;;;18.82;61.11;98829.38;2079636;28;19994;-47
2022/05/04 04:51:08;;;;;;;;;;;;;;;18.81;61.24;98825.06;2082331;28;19976;-48
2022/05/04 04:52:08;;;;;;;;;;;;;;;18.82;61.04;98828.56;2089606;28;20015;-47
2022/05/04 04:53:10;;;;;;;;;;;;;;;18.81;61.16;98829.59;2087113;28;19928;-46
2022/05/04 04:54:11;;;;;;;;;;;;;;;18.81;61.22;98827.75;2086785;28;20008;-48
2022/05/04 04:55:12;;;;;;;;;;;;;;;18.80;61.02;98823.38;2085893;28;19935;-49
2022/05/04 04:56:14;;;;;;;;;;;;;;;18.81;61.01;98825.06;2085645;28;19924;-48
2022/05/04 04:57:14;;;;;;;;;;;;;;;18.80;61.34;98826.06;2089924;28;20035;-46
2022/05/04 04:58:17;;;;;;;;;;;;;;;18.82;61.26;98825.88;2087203;28;20374;-46
2022/05/04 04:59:19;;;;;;;;;;;;;;;18.82;61.04;98828.56;2083592;28;19928;-49
2022/05/04 05:00:20;;;;;;;;;;;;;;;18.80;60.93;98825.25;2083942;28;19929;-46
2022/05/04 05:01:22;;;;;;;;;;;;;;;18.81;61.06;98826.91;2082246;28;19932;-48
2022/05/04 05:02:22;;;;;;;;;;;;;;;18.81;61.41;98826.91;2081564;28;19939;-46
2022/05/04 05:03:24;;;;;;;;;;;;;;;18.80;61.02;98826.06;2084047;28;20386;-45
2022/05/04 05:04:25;;;;;;;;;;;;;;;18.81;61.20;98829.59;2083078;28;19936;-46
2022/05/04 05:05:26;;;;;;;;;;;;;;;18.80;60.86;98833.31;2091109;28;19929;-48
2022/05/04 05:06:29;;;;;;;;;;;;;;;18.80;61.04;98836.00;2086936;28;19958;-47
2022/05/04 05:07:30;;;;;;;;;;;;;;;18.80;61.10;98839.50;2085440;28;19951;-47
2022/05/04 05:08:31;;;;;;;;;;;;;;;18.79;61.09;98832.47;2086540;28;19932;-46
2022/05/04 05:09:32;;;;;;;;;;;;;;;18.83;61.08;98838.28;2085356;28;19933;-47
2022/05/04 05:10:34;;;;;;;;;;;;;;;18.81;61.05;98835.81;2086246;28;19948;-45
2022/05/04 05:11:34;;;;;;;;;;;;;;;18.77;61.43;98837.22;2086450;28;19924;-46
2022/05/04 05:12:36;;;;;;;;;;;;;;;18.78;61.12;98841.59;2084433;28;20027;-46
2022/05/04 05:16:13;;;;;;;;;;;;;;;18.80;61.58;98836.81;2086307;28;20022;-46
2022/05/04 05:17:14;;;;;;;;;;;;;;;18.78;61.49;98833.53;2086076;28;19924;-46
2022/05/04 05:18:15;;;;;;;;;;;;;;;18.80;61.54;98827.94;2088090;28;19971;-46
2022/05/04 05:19:16;;;;;;;;;;;;;;;18.79;61.47;98835.16;2081880;28;19929;-48
2022/05/04 05:20:18;;;;;;;;;;;;;;;18.78;61.83;98843.41;2089939;28;19939;-45
2022/05/04 05:21:19;;;;;;;;;;;;;;;18.79;61.57;98840.53;2084728;28;19968;-46
2022/05/04 05:22:20;;;;;;;;;;;;;;;18.80;61.56;98842.19;2086229;28;20059;-49
2022/05/04 05:23:22;;;;;;;;;;;;;;;18.77;61.80;98839.09;2080527;28;19990;-46
2022/05/04 05:24:23;;;;;;;;;;;;;;;18.77;61.83;98837.22;2085357;28;19929;-45
2022/05/04 05:25:25;;;;;;;;;;;;;;;18.78;61.67;98835.34;2087883;28;19929;-48
2022/05/04 05:26:26;;;;;;;;;;;;;;;18.76;61.76;98838.25;2087519;28;19932;-46
2022/05/04 05:27:29;;;;;;;;;;;;;;;18.77;61.78;98833.72;2084693;28;20422;-49
2022/05/04 05:28:30;;;;;;;;;;;;;;;18.77;61.91;98837.22;2085323;28;19982;-46
2022/05/04 05:29:32;;;;;;;;;;;;;;;18.75;61.79;98842.81;2081042;28;19933;-52
2022/05/04 05:30:34;;;;;;;;;;;;;;;18.75;61.73;98832.06;2086696;28;19933;-47
2022/05/04 05:31:34;;;;;;;;;;;;;;;18.77;61.82;98839.91;2080407;28;19929;-48
2022/05/04 05:32:36;;;;;;;;;;;;;;;18.76;61.67;98840.94;2088483;28;19952;-51
2022/05/04 05:33:36;;;;;;;;;;;;;;;18.79;61.69;98847.78;2084581;28;19924;-51